createdAt,value
2022-11-02T00:00:41.547Z,9.40
2022-11-02T00:03:08.919Z,9.50
2022-11-02T00:05:36.240Z,9.50
2022-11-02T00:08:03.342Z,9.50
2022-11-02T00:10:30.248Z,9.50
2022-11-02T00:12:57.444Z,9.40
2022-11-02T00:15:30.198Z,9.40
2022-11-02T00:18:06.000Z,9.40
2022-11-02T00:20:32.785Z,9.30
2022-11-02T00:23:01.982Z,9.30
2022-11-02T00:25:29.921Z,9.30
2022-11-02T00:27:56.562Z,9.30
2022-11-02T00:30:23.441Z,9.30
2022-11-02T00:32:51.183Z,9.30
2022-11-02T00:35:17.948Z,9.30
2022-11-02T00:37:44.651Z,9.30
2022-11-02T00:40:12.104Z,9.20
2022-11-02T00:42:38.781Z,9.20
2022-11-02T00:45:07.384Z,9.20
2022-11-02T00:47:34.395Z,9.20
2022-11-02T00:50:01.130Z,9.20
2022-11-02T00:52:27.787Z,9.10
2022-11-02T00:54:54.534Z,9.10
2022-11-02T00:57:21.175Z,9.10
2022-11-02T00:59:47.920Z,9.10
2022-11-02T01:02:14.709Z,9.00
2022-11-02T01:04:41.521Z,9.10
2022-11-02T01:07:08.224Z,9.10
2022-11-02T01:09:35.069Z,9.00
2022-11-02T01:12:01.689Z,9.10
2022-11-02T01:14:28.533Z,9.00
2022-11-02T01:16:57.897Z,9.00
2022-11-02T01:19:25.396Z,9.00
2022-11-02T01:21:52.130Z,9.10
2022-11-02T01:24:18.757Z,9.10
2022-11-02T01:26:45.540Z,9.10
2022-11-02T01:29:12.325Z,9.10
2022-11-02T01:31:38.990Z,9.20
2022-11-02T01:34:05.733Z,9.20
2022-11-02T01:36:32.350Z,9.30
2022-11-02T01:38:59.018Z,9.30
2022-11-02T01:41:25.650Z,9.30
2022-11-02T01:43:56.235Z,9.40
2022-11-02T01:46:28.743Z,9.40
2022-11-02T01:49:07.307Z,9.40
2022-11-02T01:51:38.521Z,9.40
2022-11-02T01:54:18.984Z,9.40
2022-11-02T01:56:50.275Z,9.50
2022-11-02T01:59:23.328Z,9.50
2022-11-02T02:01:50.340Z,9.50
2022-11-02T02:04:17.202Z,9.50
2022-11-02T02:06:44.285Z,9.60
2022-11-02T02:09:11.708Z,9.70
2022-11-02T02:11:39.988Z,9.70
2022-11-02T02:14:16.165Z,9.60
2022-11-02T02:17:23.662Z,9.60
2022-11-02T02:20:07.293Z,9.50
2022-11-02T02:23:01.476Z,9.50
2022-11-02T02:26:03.644Z,9.40
2022-11-02T02:28:48.298Z,9.30
2022-11-02T02:31:21.391Z,9.30
2022-11-02T02:33:56.907Z,9.20
2022-11-02T02:36:26.665Z,9.20
2022-11-02T02:38:53.192Z,9.30
2022-11-02T02:41:29.242Z,9.20
2022-11-02T02:43:58.624Z,9.20
2022-11-02T02:46:43.216Z,9.20
2022-11-02T02:49:15.735Z,9.30
2022-11-02T02:51:44.375Z,9.30
2022-11-02T02:54:32.611Z,9.30
2022-11-02T02:57:06.218Z,9.30
2022-11-02T02:59:42.421Z,9.20
2022-11-02T03:02:16.361Z,9.30
2022-11-02T03:04:43.162Z,9.30
2022-11-02T03:07:12.372Z,9.40
2022-11-02T03:09:57.913Z,9.30
2022-11-02T03:12:38.679Z,9.40
2022-11-02T03:15:26.260Z,9.40
2022-11-02T03:18:18.257Z,9.40
2022-11-02T03:21:12.712Z,9.50
2022-11-02T03:23:51.644Z,9.50
2022-11-02T03:26:56.630Z,9.60
2022-11-02T03:29:33.071Z,9.60
2022-11-02T03:32:17.927Z,9.60
2022-11-02T03:34:55.728Z,9.50
2022-11-02T03:37:31.274Z,9.50
2022-11-02T03:40:16.862Z,9.50
2022-11-02T03:42:45.445Z,9.50
2022-11-02T03:45:17.841Z,9.60
2022-11-02T03:47:51.230Z,9.60
2022-11-02T03:50:22.233Z,9.70
2022-11-02T03:52:55.956Z,9.70
2022-11-02T03:55:33.578Z,9.80
2022-11-02T03:58:00.394Z,9.80
2022-11-02T04:00:32.500Z,9.80
2022-11-02T04:03:02.663Z,9.80
2022-11-02T04:05:35.143Z,9.90
2022-11-02T04:08:20.722Z,9.90
2022-11-02T04:11:07.146Z,9.90
2022-11-02T04:13:57.109Z,9.90
2022-11-02T04:16:27.564Z,9.90
2022-11-02T04:19:13.652Z,10.00
2022-11-02T04:21:40.922Z,10.00
2022-11-02T04:24:27.878Z,10.00
2022-11-02T04:26:54.491Z,10.00
2022-11-02T04:29:21.180Z,10.00
2022-11-02T04:31:47.807Z,10.00
2022-11-02T04:34:14.471Z,10.00
2022-11-02T04:36:41.288Z,9.80
2022-11-02T04:39:07.894Z,9.80
2022-11-02T04:41:43.810Z,9.80
2022-11-02T04:44:11.743Z,9.70
2022-11-02T04:46:39.328Z,9.70
2022-11-02T04:49:06.938Z,9.60
2022-11-02T04:51:34.666Z,9.60
2022-11-02T04:54:01.821Z,9.50
2022-11-02T04:56:30.012Z,9.50
2022-11-02T04:58:58.645Z,9.40
2022-11-02T05:01:28.079Z,9.30
2022-11-02T05:03:55.835Z,9.20
2022-11-02T05:06:23.805Z,9.20
2022-11-02T05:08:50.607Z,9.30
2022-11-02T05:11:17.527Z,9.20
2022-11-02T05:13:45.470Z,9.30
2022-11-02T05:16:14.881Z,9.20
2022-11-02T05:18:41.964Z,9.10
2022-11-02T05:21:10.189Z,9.10
2022-11-02T05:23:37.027Z,9.00
2022-11-02T05:26:07.058Z,9.00
2022-11-02T05:28:34.358Z,9.00
2022-11-02T05:31:01.964Z,9.00
2022-11-02T05:33:32.189Z,9.00
2022-11-02T05:35:59.876Z,9.00
2022-11-02T05:38:27.623Z,8.90
2022-11-02T05:40:59.231Z,8.90
2022-11-02T05:43:26.710Z,8.90
2022-11-02T05:45:58.698Z,8.80
2022-11-02T05:48:26.663Z,8.80
2022-11-02T05:51:01.482Z,8.80
2022-11-02T05:53:32.674Z,8.70
2022-11-02T05:56:00.309Z,8.70
2022-11-02T05:58:28.118Z,8.70
2022-11-02T06:00:55.080Z,8.70
2022-11-02T06:03:21.728Z,8.70
2022-11-02T06:05:48.536Z,8.70
2022-11-02T06:08:15.238Z,8.70
2022-11-02T06:10:44.739Z,8.70
2022-11-02T06:13:11.364Z,8.80
2022-11-02T06:15:38.024Z,8.80
2022-11-02T06:18:04.908Z,8.80
2022-11-02T06:20:31.594Z,8.80
2022-11-02T06:22:59.016Z,8.80
2022-11-02T06:25:26.441Z,8.80
2022-11-02T06:27:55.087Z,8.80
2022-11-02T06:30:22.770Z,8.80
2022-11-02T06:32:50.750Z,8.90
2022-11-02T06:35:19.008Z,8.90
2022-11-02T06:37:46.105Z,8.90
2022-11-02T06:40:13.815Z,9.00
2022-11-02T06:42:45.247Z,9.00
2022-11-02T06:45:17.594Z,9.10
2022-11-02T06:47:44.266Z,9.10
2022-11-02T06:50:10.851Z,9.10
2022-11-02T06:52:44.317Z,9.20
2022-11-02T06:55:15.402Z,9.20
2022-11-02T06:57:43.320Z,9.20
2022-11-02T07:00:15.383Z,9.20
2022-11-02T07:02:45.203Z,9.30
2022-11-02T07:05:12.382Z,9.30
2022-11-02T07:07:39.133Z,9.50
2022-11-02T07:10:09.067Z,9.70
2022-11-02T07:12:35.673Z,9.80
2022-11-02T07:15:02.503Z,10.00
2022-11-02T07:17:32.126Z,10.10
2022-11-02T07:19:59.058Z,10.20
2022-11-02T07:22:25.795Z,10.40
2022-11-02T07:24:52.417Z,10.50
2022-11-02T07:27:20.881Z,10.70
2022-11-02T07:29:47.546Z,10.80
2022-11-02T07:32:15.001Z,10.90
2022-11-02T07:34:41.696Z,11.00
2022-11-02T07:37:08.390Z,11.10
2022-11-02T07:39:34.971Z,11.30
2022-11-02T07:42:01.730Z,11.40
2022-11-02T07:44:29.524Z,11.50
2022-11-02T07:46:56.297Z,11.50
2022-11-02T07:49:23.010Z,11.70
2022-11-02T07:51:49.714Z,11.80
2022-11-02T07:54:16.393Z,11.90
2022-11-02T07:56:45.770Z,11.90
2022-11-02T07:59:13.134Z,12.10
2022-11-02T08:01:39.920Z,12.20
2022-11-02T08:04:06.646Z,12.30
2022-11-02T08:06:35.416Z,12.30
2022-11-02T08:09:03.084Z,12.50
2022-11-02T08:11:29.766Z,12.50
2022-11-02T08:13:56.471Z,12.60
2022-11-02T08:16:23.190Z,12.80
2022-11-02T08:18:49.821Z,13.00
2022-11-02T08:21:16.437Z,13.30
2022-11-02T08:23:43.106Z,13.50
2022-11-02T08:26:09.740Z,13.70
2022-11-02T08:28:39.971Z,13.40
2022-11-02T08:31:11.841Z,13.10
2022-11-02T08:33:38.538Z,13.10
2022-11-02T08:36:05.623Z,12.90
2022-11-02T08:38:32.576Z,12.90
2022-11-02T08:40:59.297Z,12.70
2022-11-02T08:43:26.081Z,12.70
2022-11-02T08:48:39.503Z,12.50
2022-11-02T08:51:08.804Z,12.60
2022-11-02T08:53:35.563Z,12.90
2022-11-02T08:56:02.381Z,13.20
2022-11-02T08:58:29.224Z,13.50
2022-11-02T09:00:56.398Z,13.70
2022-11-02T09:03:26.758Z,14.00
2022-11-02T09:05:59.274Z,14.20
2022-11-02T09:08:27.851Z,14.20
2022-11-02T09:11:00.304Z,14.30
2022-11-02T09:13:28.052Z,14.10
2022-11-02T09:15:57.057Z,13.60
2022-11-02T09:18:24.024Z,13.70
2022-11-02T09:20:51.377Z,13.70
2022-11-02T09:23:19.598Z,13.70
2022-11-02T09:25:46.374Z,13.90
2022-11-02T09:28:15.006Z,14.10
2022-11-02T09:30:42.064Z,14.50
2022-11-02T09:33:09.850Z,14.80
2022-11-02T09:35:39.215Z,14.90
2022-11-02T09:38:06.179Z,15.00
2022-11-02T09:40:38.495Z,15.00
2022-11-02T09:43:26.092Z,15.30
2022-11-02T09:46:08.121Z,15.20
2022-11-02T09:48:45.461Z,15.20
2022-11-02T09:51:16.155Z,15.30
2022-11-02T09:54:02.064Z,15.50
2022-11-02T09:56:31.509Z,15.50
2022-11-02T09:59:04.554Z,15.20
2022-11-02T10:02:04.997Z,15.70
2022-11-02T10:04:37.363Z,15.90
2022-11-02T10:07:15.886Z,16.20
2022-11-02T10:09:48.454Z,15.80
2022-11-02T10:12:51.313Z,16.10
2022-11-02T10:15:27.381Z,16.00
2022-11-02T10:17:58.362Z,15.60
2022-11-02T10:20:52.981Z,15.20
2022-11-02T10:23:34.626Z,15.60
2022-11-02T10:26:03.126Z,16.30
2022-11-02T10:28:33.958Z,16.50
2022-11-02T10:31:02.830Z,16.90
2022-11-02T10:33:30.956Z,17.20
2022-11-02T10:36:19.563Z,17.60
2022-11-02T10:39:09.146Z,17.50
2022-11-02T10:41:49.700Z,17.40
2022-11-02T10:44:16.377Z,17.90
2022-11-02T10:46:42.983Z,18.20
2022-11-02T10:49:14.358Z,18.00
2022-11-02T10:51:41.295Z,17.70
2022-11-02T10:54:19.628Z,18.40
2022-11-02T10:56:50.849Z,18.90
2022-11-02T10:59:23.839Z,18.50
2022-11-02T11:01:56.473Z,17.40
2022-11-02T11:04:33.693Z,17.60
2022-11-02T11:07:27.190Z,17.20
2022-11-02T11:09:56.210Z,17.20
2022-11-02T11:12:32.683Z,17.90
2022-11-02T11:20:40.054Z,18.30
2022-11-02T11:23:12.579Z,18.00
2022-11-02T11:25:41.085Z,17.00
2022-11-02T11:28:24.333Z,16.70
2022-11-02T11:31:05.011Z,17.40
2022-11-02T11:33:33.905Z,17.20
2022-11-02T11:36:00.845Z,16.80
2022-11-02T11:38:27.836Z,16.30
2022-11-02T11:40:57.753Z,16.30
2022-11-02T11:43:33.977Z,16.40
2022-11-02T11:46:06.581Z,16.50
2022-11-02T11:48:36.528Z,16.50
2022-11-02T11:51:05.250Z,16.70
2022-11-02T11:53:32.161Z,16.60
2022-11-02T11:56:00.262Z,16.30
2022-11-02T11:58:34.449Z,16.40
2022-11-02T12:01:20.248Z,16.40
2022-11-02T12:03:54.579Z,16.30
2022-11-02T12:06:36.782Z,16.20
2022-11-02T12:09:41.225Z,15.80
2022-11-02T12:12:28.636Z,15.50
2022-11-02T12:15:25.976Z,15.40
2022-11-02T12:18:06.613Z,15.10
2022-11-02T12:21:04.064Z,14.80
2022-11-02T12:23:49.511Z,14.80
2022-11-02T12:26:42.920Z,14.50
2022-11-02T12:29:36.845Z,14.30
2022-11-02T12:32:15.065Z,14.20
2022-11-02T12:35:34.534Z,14.00
2022-11-02T12:38:20.055Z,14.00
2022-11-02T12:40:52.492Z,14.00
2022-11-02T12:43:37.519Z,13.90
2022-11-02T12:46:15.975Z,13.90
2022-11-02T12:49:01.384Z,13.90
2022-11-02T12:51:44.586Z,13.90
2022-11-02T12:54:15.647Z,13.90
2022-11-02T12:56:54.145Z,14.00
2022-11-02T12:59:27.909Z,14.00
2022-11-02T13:02:02.413Z,14.00
2022-11-02T13:04:37.011Z,14.00
2022-11-02T13:07:15.504Z,14.00
2022-11-02T13:09:53.215Z,14.10
2022-11-02T13:12:23.224Z,14.00
2022-11-02T13:14:52.823Z,14.00
2022-11-02T13:17:27.442Z,13.90
2022-11-02T13:19:58.708Z,13.90
2022-11-02T13:22:36.915Z,13.80
2022-11-02T13:25:20.051Z,13.70
2022-11-02T13:28:11.877Z,13.80
2022-11-02T13:30:40.416Z,13.90
2022-11-02T13:33:18.762Z,14.10
2022-11-02T13:35:46.276Z,14.10
2022-11-02T13:38:12.953Z,14.10
2022-11-02T13:40:45.253Z,14.30
2022-11-02T13:43:39.219Z,14.40
2022-11-02T13:46:37.896Z,14.60
2022-11-02T13:49:15.670Z,14.80
2022-11-02T13:51:52.164Z,14.90
2022-11-02T13:54:25.754Z,14.80
2022-11-02T13:56:54.664Z,14.70
2022-11-02T13:59:33.075Z,14.70
2022-11-02T14:02:02.524Z,14.80
2022-11-02T14:04:37.727Z,14.70
2022-11-02T14:07:07.955Z,14.80
2022-11-02T14:09:39.843Z,14.60
2022-11-02T14:12:22.755Z,14.40
2022-11-02T14:15:15.692Z,14.30
2022-11-02T14:17:51.631Z,14.30
2022-11-02T14:20:36.929Z,14.30
2022-11-02T14:23:09.395Z,14.20
2022-11-02T14:25:52.299Z,14.20
2022-11-02T14:28:22.217Z,14.10
2022-11-02T14:31:15.895Z,14.00
2022-11-02T14:33:59.670Z,13.90
2022-11-02T14:37:03.017Z,13.80
2022-11-02T14:39:50.058Z,13.80
2022-11-02T14:42:25.621Z,13.70
2022-11-02T14:45:16.892Z,13.70
2022-11-02T14:47:43.654Z,13.70
2022-11-02T14:50:13.022Z,13.70
2022-11-02T14:52:42.062Z,13.70
2022-11-02T14:55:19.865Z,13.60
2022-11-02T14:57:55.588Z,13.60
2022-11-02T15:00:35.371Z,13.60
2022-11-02T15:03:05.517Z,13.50
2022-11-02T15:05:40.305Z,13.50
2022-11-02T15:08:08.235Z,13.50
2022-11-02T15:10:41.984Z,13.50
2022-11-02T15:13:20.688Z,13.40
2022-11-02T15:15:50.404Z,13.40
2022-11-02T15:18:23.176Z,13.30
2022-11-02T15:21:11.651Z,13.30
2022-11-02T15:23:43.292Z,13.20
2022-11-02T15:26:14.949Z,13.20
2022-11-02T15:28:44.215Z,13.10
2022-11-02T15:31:25.650Z,13.10
2022-11-02T15:33:56.561Z,13.00
2022-11-02T15:36:33.955Z,13.00
2022-11-02T15:39:03.356Z,12.90
2022-11-02T15:41:42.074Z,12.90
2022-11-02T15:44:17.894Z,12.80
2022-11-02T15:47:08.343Z,12.70
2022-11-02T15:50:10.109Z,12.70
2022-11-02T15:53:22.262Z,12.60
2022-11-02T15:56:07.275Z,12.60
2022-11-02T15:58:55.304Z,12.50
2022-11-02T16:01:22.229Z,12.40
2022-11-02T16:04:04.937Z,12.30
2022-11-02T16:06:44.407Z,12.20
2022-11-02T16:09:44.733Z,12.10
2022-11-02T16:12:13.796Z,12.10
2022-11-02T16:14:41.226Z,12.00
2022-11-02T16:17:19.403Z,12.00
2022-11-02T16:19:46.233Z,11.90
2022-11-02T16:22:18.996Z,11.90
2022-11-02T16:24:47.113Z,11.90
2022-11-02T16:27:13.970Z,11.80
2022-11-02T16:29:42.419Z,11.80
2022-11-02T16:32:12.336Z,11.60
2022-11-02T16:34:40.404Z,11.60
2022-11-02T16:37:10.652Z,11.50
2022-11-02T16:39:41.928Z,11.40
2022-11-02T16:42:15.591Z,11.40
2022-11-02T16:44:43.243Z,11.30
2022-11-02T16:47:09.817Z,11.30
2022-11-02T16:49:51.311Z,11.20
2022-11-02T16:52:23.988Z,11.10
2022-11-02T16:54:50.787Z,11.10
2022-11-02T16:57:22.339Z,11.00
2022-11-02T16:59:53.285Z,11.00
2022-11-02T17:02:31.930Z,11.00
2022-11-02T17:05:04.373Z,10.90
2022-11-02T17:07:36.841Z,10.90
2022-11-02T17:10:05.968Z,10.80
2022-11-02T17:12:40.285Z,10.70
2022-11-02T17:15:21.852Z,10.70
2022-11-02T17:17:48.800Z,10.60
2022-11-02T17:20:24.098Z,10.50
2022-11-02T17:22:52.100Z,10.50
2022-11-02T17:25:30.544Z,10.40
2022-11-02T17:27:59.448Z,10.40
2022-11-02T17:30:34.972Z,10.40
2022-11-02T17:33:23.255Z,10.30
2022-11-02T17:35:51.924Z,10.40
2022-11-02T17:38:21.925Z,10.30
2022-11-02T17:40:52.214Z,10.40
2022-11-02T17:43:20.559Z,10.40
2022-11-02T17:45:57.626Z,10.30
2022-11-02T17:48:25.164Z,10.20
2022-11-02T17:50:56.686Z,10.20
2022-11-02T17:53:24.512Z,10.10
2022-11-02T17:55:51.505Z,10.00
2022-11-02T17:58:18.494Z,9.90
2022-11-02T18:00:45.397Z,9.90
2022-11-02T18:03:17.406Z,9.90
2022-11-02T18:05:48.531Z,9.90
2022-11-02T18:08:17.398Z,9.90
2022-11-02T18:10:46.157Z,9.90
2022-11-02T18:13:14.944Z,9.90
2022-11-02T18:15:41.824Z,9.90
2022-11-02T18:18:08.984Z,9.90
2022-11-02T18:20:41.508Z,9.80
2022-11-02T18:23:15.521Z,9.80
2022-11-02T18:25:42.407Z,9.80
2022-11-02T18:28:09.284Z,9.80
2022-11-02T18:30:35.955Z,9.80
2022-11-02T18:33:02.890Z,9.80
2022-11-02T18:35:29.619Z,9.70
2022-11-02T18:37:56.629Z,9.70
2022-11-02T18:40:23.251Z,9.70
2022-11-02T18:42:50.169Z,9.70
2022-11-02T18:45:17.107Z,9.70
2022-11-02T18:47:44.168Z,9.60
2022-11-02T18:50:12.903Z,9.60
2022-11-02T18:52:41.910Z,9.50
2022-11-02T18:55:08.824Z,9.60
2022-11-02T18:57:35.505Z,9.50
2022-11-02T19:00:02.866Z,9.50
2022-11-02T19:02:29.985Z,9.40
2022-11-02T19:04:56.779Z,9.30
2022-11-02T19:07:42.195Z,9.20
2022-11-02T19:10:09.886Z,9.10
2022-11-02T19:12:37.008Z,9.00
2022-11-02T19:15:04.358Z,8.90
2022-11-02T19:17:31.216Z,8.90
2022-11-02T19:19:57.925Z,8.80
2022-11-02T19:22:26.438Z,8.80
2022-11-02T19:24:53.596Z,8.70
2022-11-02T19:27:22.371Z,8.70
2022-11-02T19:29:49.480Z,8.70
2022-11-02T19:32:16.843Z,8.60
2022-11-02T19:34:43.829Z,8.70
2022-11-02T19:37:11.300Z,8.60
2022-11-02T19:39:38.131Z,8.60
2022-11-02T19:42:07.201Z,8.50
2022-11-02T19:44:42.283Z,8.50
2022-11-02T19:47:10.227Z,8.50
2022-11-02T19:49:36.977Z,8.50
2022-11-02T19:52:03.841Z,8.50
2022-11-02T19:54:30.653Z,8.50
2022-11-02T19:56:57.374Z,8.50
2022-11-02T19:59:24.001Z,8.60
2022-11-02T20:01:51.977Z,8.60
2022-11-02T20:04:18.940Z,8.60
2022-11-02T20:06:45.706Z,8.60
2022-11-02T20:09:19.684Z,8.60
2022-11-02T20:11:48.147Z,8.60
2022-11-02T20:14:16.156Z,8.50
2022-11-02T20:16:44.884Z,8.40
2022-11-02T20:19:11.876Z,8.30
2022-11-02T20:21:43.047Z,8.30
2022-11-02T20:24:10.639Z,8.30
2022-11-02T20:26:39.210Z,8.30
2022-11-02T20:29:06.799Z,8.30
2022-11-02T20:31:38.484Z,8.20
2022-11-02T20:34:07.491Z,8.30
2022-11-02T20:36:34.825Z,8.30
2022-11-02T20:39:04.641Z,8.30
2022-11-02T20:41:31.585Z,8.30
2022-11-02T20:43:58.337Z,8.30
2022-11-02T20:46:46.286Z,8.20
2022-11-02T20:49:22.239Z,8.20
2022-11-02T20:52:01.461Z,8.20
2022-11-02T20:54:29.708Z,8.10
2022-11-02T20:56:56.982Z,8.10
2022-11-02T20:59:23.737Z,8.00
2022-11-02T21:01:50.474Z,8.00
2022-11-02T21:04:20.882Z,8.00
2022-11-02T21:06:51.635Z,8.00
2022-11-02T21:09:18.859Z,8.00
2022-11-02T21:12:04.237Z,8.00
2022-11-02T21:14:30.909Z,7.90
2022-11-02T21:16:57.583Z,8.00
2022-11-02T21:19:24.480Z,8.00
2022-11-02T21:21:56.588Z,8.00
2022-11-02T21:24:26.046Z,8.00
2022-11-02T21:26:52.670Z,8.00
2022-11-02T21:29:19.448Z,7.90
2022-11-02T21:31:46.096Z,7.90
2022-11-02T21:34:12.809Z,7.90
2022-11-02T21:36:39.430Z,7.90
2022-11-02T21:39:06.168Z,7.90
2022-11-02T21:41:38.431Z,7.90
2022-11-02T21:44:06.639Z,7.90
2022-11-02T21:46:33.313Z,8.00
2022-11-02T21:49:00.012Z,8.00
2022-11-02T21:51:27.064Z,8.00
2022-11-02T21:53:53.755Z,8.00
2022-11-02T21:56:25.677Z,8.10
2022-11-02T21:58:53.382Z,8.00
2022-11-02T22:01:44.137Z,8.00
2022-11-02T22:04:13.818Z,8.00
2022-11-02T22:06:41.098Z,8.00
2022-11-02T22:09:09.102Z,8.10
2022-11-02T22:11:35.811Z,8.10
2022-11-02T22:14:03.358Z,8.20
2022-11-02T22:16:35.565Z,8.20
2022-11-02T22:19:05.135Z,8.30
2022-11-02T22:21:34.360Z,8.30
2022-11-02T22:24:02.094Z,8.30
2022-11-02T22:26:30.168Z,8.40
2022-11-02T22:28:58.113Z,8.40
2022-11-02T22:31:27.761Z,8.40
2022-11-02T22:33:56.207Z,8.40
2022-11-02T22:36:26.065Z,8.40
2022-11-02T22:38:54.238Z,8.40
2022-11-02T22:41:22.914Z,8.40
2022-11-02T22:43:53.250Z,8.50
2022-11-02T22:46:23.357Z,8.50
2022-11-02T22:48:54.858Z,8.50
2022-11-02T22:51:23.905Z,8.60
2022-11-02T22:53:51.703Z,8.70
2022-11-02T22:56:20.884Z,8.80
2022-11-02T22:58:48.658Z,8.80
2022-11-02T23:01:21.033Z,8.80
2022-11-02T23:03:47.912Z,8.80
2022-11-02T23:06:15.672Z,8.70
2022-11-02T23:08:45.750Z,8.60
2022-11-02T23:11:21.998Z,8.60
2022-11-02T23:14:04.427Z,8.60
2022-11-02T23:16:48.133Z,8.50
2022-11-02T23:19:38.173Z,8.40
2022-11-02T23:22:30.901Z,8.40
2022-11-02T23:25:12.562Z,8.40
2022-11-02T23:28:13.992Z,8.40
2022-11-02T23:30:59.590Z,8.40
2022-11-02T23:33:33.999Z,8.40
2022-11-02T23:36:13.862Z,8.40
2022-11-02T23:39:03.544Z,8.40
2022-11-02T23:41:31.012Z,8.40
2022-11-02T23:44:16.432Z,8.40
2022-11-02T23:46:45.689Z,8.40
2022-11-02T23:49:13.233Z,8.40
2022-11-02T23:51:58.832Z,8.30
2022-11-02T23:54:43.894Z,8.30
2022-11-02T23:57:10.607Z,8.30
2022-11-02T23:59:37.280Z,8.30
